Old Nevada, Nevada
Current Conditions -  °F | °C
As of 2:56 PM on Thursday 20 Nov 2014 (Local Time) from KHND Reporting Station
Clear Clear  
Wind Chill: 62°   Ceiling: Unl
Heat Index: 62°   Visibility: 10mi
Dew Point: 14°   Wind: 7mph
Humidity: 15%   Direction: 20°NNE
Pressure: 29.99"   Gusts: NA
Location:  35.8437°N, 115.134°W
Report Text: KHND 202256Z AUTO 02006KT 10SM CLR 17/M10 A2999 RMK AO2 TSNO T01661100 SLP157
Loading
Personal Weather Stations






























Interactive Weather Map New forecast layout! Learn more

10-Day Weather Forecast

Advertisements
Track Severe Weather on mobile